createdAt,value
2024-02-27T00:00:29.950Z,2434.00
2024-02-27T00:01:29.991Z,2417.00
2024-02-27T00:02:30.345Z,2419.00
2024-02-27T00:03:29.967Z,2414.00
2024-02-27T00:04:30.028Z,2410.00
2024-02-27T00:05:30.028Z,2418.00
2024-02-27T00:06:30.036Z,2424.00
2024-02-27T00:07:29.981Z,2447.00
2024-02-27T00:08:29.946Z,2453.00
2024-02-27T00:09:29.956Z,2460.00
2024-02-27T00:10:29.969Z,2473.00
2024-02-27T00:11:29.965Z,2481.00
2024-02-27T00:12:30.338Z,2486.00
2024-02-27T00:13:29.950Z,2484.00
2024-02-27T00:14:29.970Z,2478.00
2024-02-27T00:15:29.991Z,2466.00
2024-02-27T00:16:29.958Z,2464.00
2024-02-27T00:17:30.007Z,2471.00
2024-02-27T00:18:30.177Z,2473.00
2024-02-27T00:19:30.140Z,2472.00
2024-02-27T00:20:30.048Z,2476.00
2024-02-27T00:21:30.041Z,2479.00
2024-02-27T00:22:30.025Z,2463.00
2024-02-27T00:23:29.985Z,2462.00
2024-02-27T00:24:30.101Z,2456.00
2024-02-27T00:25:29.979Z,2473.00
2024-02-27T00:26:29.995Z,2484.00
2024-02-27T00:27:30.088Z,2501.00
2024-02-27T00:28:29.984Z,2476.00
2024-02-27T00:29:30.041Z,2478.00
2024-02-27T00:30:30.060Z,2478.00
2024-02-27T00:31:30.061Z,2486.00
2024-02-27T00:32:30.338Z,2487.00
2024-02-27T00:33:30.034Z,2494.00
2024-02-27T00:34:30.072Z,2507.00
2024-02-27T00:35:30.036Z,2522.00
2024-02-27T00:36:30.230Z,2524.00
2024-02-27T00:37:30.328Z,2521.00
2024-02-27T00:38:30.028Z,2518.00
2024-02-27T00:39:30.129Z,2524.00
2024-02-27T00:40:30.029Z,2515.00
2024-02-27T00:41:30.000Z,2520.00
2024-02-27T00:42:30.438Z,2516.00
2024-02-27T00:43:30.000Z,2518.00
2024-02-27T00:44:30.041Z,2517.00
2024-02-27T00:45:30.019Z,2539.00
2024-02-27T00:46:30.057Z,2586.00
2024-02-27T00:47:30.356Z,2601.00
2024-02-27T00:48:30.149Z,2620.00
2024-02-27T00:49:30.099Z,2623.00
2024-02-27T00:50:30.048Z,2638.00
2024-02-27T00:51:30.058Z,2640.00
2024-02-27T00:52:30.149Z,2641.00
2024-02-27T00:53:30.013Z,2633.00
2024-02-27T00:54:30.094Z,2637.00
2024-02-27T00:55:30.101Z,2633.00
2024-02-27T00:56:30.102Z,2636.00
2024-02-27T00:57:30.182Z,2634.00
2024-02-27T00:58:30.182Z,2634.00
2024-02-27T00:59:30.209Z,2629.00
2024-02-27T01:00:30.224Z,2608.00
2024-02-27T01:01:30.332Z,2587.00
2024-02-27T01:02:30.353Z,2573.00
2024-02-27T01:03:30.458Z,2562.00
2024-02-27T01:04:30.478Z,2537.00
2024-02-27T01:05:30.600Z,2513.00
2024-02-27T01:06:30.592Z,2503.00
2024-02-27T01:07:30.851Z,2489.00
2024-02-27T01:08:30.725Z,2473.00
2024-02-27T01:09:30.718Z,2453.00
2024-02-27T01:10:30.750Z,2441.00
2024-02-27T01:11:30.791Z,2443.00
2024-02-27T01:12:30.894Z,2415.00
2024-02-27T01:13:30.865Z,2412.00
2024-02-27T01:14:30.941Z,2428.00
2024-02-27T01:15:31.035Z,2409.00
2024-02-27T01:16:31.014Z,2393.00
2024-02-27T01:17:31.090Z,2377.00
2024-02-27T01:18:31.212Z,2373.00
2024-02-27T01:19:31.224Z,2353.00
2024-02-27T01:20:31.154Z,2344.00
2024-02-27T01:21:31.257Z,2346.00
2024-02-27T01:22:31.354Z,2364.00
2024-02-27T01:23:31.308Z,2378.00
2024-02-27T01:24:31.453Z,2386.00
2024-02-27T01:25:31.413Z,2407.00
2024-02-27T01:26:31.487Z,2435.00
2024-02-27T01:27:31.613Z,2435.00
2024-02-27T01:28:31.529Z,2443.00
2024-02-27T01:29:31.572Z,2417.00
2024-02-27T01:30:31.687Z,2434.00
2024-02-27T01:31:31.704Z,2459.00
2024-02-27T01:32:31.793Z,2465.00
2024-02-27T01:33:31.893Z,2488.00
2024-02-27T01:34:31.978Z,2478.00
2024-02-27T01:35:31.893Z,2495.00
2024-02-27T01:36:31.933Z,2489.00
2024-02-27T01:37:31.957Z,2488.00
2024-02-27T01:38:32.003Z,2465.00
2024-02-27T01:39:32.127Z,2407.00
2024-02-27T01:40:32.157Z,2373.00
2024-02-27T01:41:32.112Z,2343.00
2024-02-27T01:42:32.376Z,2312.00
2024-02-27T01:43:32.222Z,2279.00
2024-02-27T01:44:32.245Z,2255.00
2024-02-27T01:45:32.394Z,2235.00
2024-02-27T01:46:32.287Z,2231.00
2024-02-27T01:47:32.378Z,2225.00
2024-02-27T01:48:33.402Z,2235.00
2024-02-27T01:49:32.503Z,2252.00
2024-02-27T01:50:32.405Z,2270.00
2024-02-27T01:51:32.482Z,2280.00
2024-02-27T01:52:32.399Z,2295.00
2024-02-27T01:53:32.417Z,2300.00
2024-02-27T01:54:32.570Z,2321.00
2024-02-27T01:55:32.499Z,2315.00
2024-02-27T01:56:32.570Z,2295.00
2024-02-27T01:57:32.659Z,2275.00
2024-02-27T01:58:32.553Z,2299.00
2024-02-27T01:59:32.588Z,2304.00
2024-02-27T02:00:32.628Z,2309.00
2024-02-27T02:01:32.716Z,2308.00
2024-02-27T02:02:32.679Z,2317.00
2024-02-27T02:03:32.708Z,2330.00
2024-02-27T02:04:32.909Z,2340.00
2024-02-27T02:05:32.707Z,2352.00
2024-02-27T02:06:32.837Z,2368.00
2024-02-27T02:07:32.785Z,2378.00
2024-02-27T02:08:32.784Z,2392.00
2024-02-27T02:09:32.906Z,2392.00
2024-02-27T02:10:32.839Z,2404.00
2024-02-27T02:11:32.918Z,2397.00
2024-02-27T02:12:33.030Z,2396.00
2024-02-27T02:13:32.980Z,2402.00
2024-02-27T02:14:32.993Z,2399.00
2024-02-27T02:15:33.113Z,2395.00
2024-02-27T02:16:33.118Z,2387.00
2024-02-27T02:17:33.340Z,2389.00
2024-02-27T02:18:33.402Z,2386.00
2024-02-27T02:19:33.347Z,2410.00
2024-02-27T02:20:33.285Z,2415.00
2024-02-27T02:21:33.346Z,2422.00
2024-02-27T02:22:33.861Z,2428.00
2024-02-27T02:23:33.407Z,2424.00
2024-02-27T02:24:33.461Z,2428.00
2024-02-27T02:25:33.463Z,2420.00
2024-02-27T02:26:33.500Z,2404.00
2024-02-27T02:27:33.910Z,2401.00
2024-02-27T02:28:33.604Z,2393.00
2024-02-27T02:29:33.646Z,2395.00
2024-02-27T02:30:33.790Z,2402.00
2024-02-27T02:31:33.731Z,2405.00
2024-02-27T02:32:33.819Z,2401.00
2024-02-27T02:33:33.916Z,2389.00
2024-02-27T02:34:33.928Z,2379.00
2024-02-27T02:35:33.860Z,2360.00
2024-02-27T02:36:34.022Z,2359.00
2024-02-27T02:37:33.960Z,2369.00
2024-02-27T02:38:33.990Z,2361.00
2024-02-27T02:39:34.094Z,2370.00
2024-02-27T02:40:34.032Z,2372.00
2024-02-27T02:41:34.081Z,2382.00
2024-02-27T02:42:34.398Z,2369.00
2024-02-27T02:43:34.153Z,2348.00
2024-02-27T02:44:34.281Z,2335.00
2024-02-27T02:45:34.244Z,2291.00
2024-02-27T02:46:34.266Z,2258.00
2024-02-27T02:47:34.316Z,2234.00
2024-02-27T02:48:34.479Z,2224.00
2024-02-27T02:49:35.654Z,2237.00
2024-02-27T02:50:34.403Z,2258.00
2024-02-27T02:51:34.467Z,2270.00
2024-02-27T02:52:34.425Z,2293.00
2024-02-27T02:53:34.373Z,2293.00
2024-02-27T02:54:34.436Z,2298.00
2024-02-27T02:55:34.387Z,2294.00
2024-02-27T02:56:34.404Z,2300.00
2024-02-27T02:57:34.440Z,2307.00
2024-02-27T02:58:34.417Z,2315.00
2024-02-27T02:59:34.365Z,2319.00
2024-02-27T03:00:34.463Z,2347.00
2024-02-27T03:01:34.448Z,2349.00
2024-02-27T03:02:34.384Z,2357.00
2024-02-27T03:03:34.548Z,2339.00
2024-02-27T03:04:34.444Z,2325.00
2024-02-27T03:05:34.422Z,2313.00
2024-02-27T03:06:34.540Z,2307.00
2024-02-27T03:07:34.413Z,2304.00
2024-02-27T03:08:34.434Z,2308.00
2024-02-27T03:09:34.419Z,2297.00
2024-02-27T03:10:34.407Z,2288.00
2024-02-27T03:11:34.455Z,2297.00
2024-02-27T03:12:34.929Z,2292.00
2024-02-27T03:13:34.406Z,2291.00
2024-02-27T03:14:34.430Z,2280.00
2024-02-27T03:15:34.494Z,2264.00
2024-02-27T03:16:34.525Z,2273.00
2024-02-27T03:17:34.510Z,2246.00
2024-02-27T03:18:34.517Z,2262.00
2024-02-27T03:19:34.530Z,2277.00
2024-02-27T03:20:34.415Z,2286.00
2024-02-27T03:21:34.498Z,2312.00
2024-02-27T03:22:34.405Z,2336.00
2024-02-27T03:23:34.461Z,2358.00
2024-02-27T03:24:34.553Z,2366.00
2024-02-27T03:25:34.463Z,2378.00
2024-02-27T03:26:34.450Z,2384.00
2024-02-27T03:27:34.544Z,2396.00
2024-02-27T03:28:34.458Z,2386.00
2024-02-27T03:29:34.481Z,2383.00
2024-02-27T03:30:34.509Z,2393.00
2024-02-27T03:31:34.451Z,2399.00
2024-02-27T03:32:34.627Z,2396.00
2024-02-27T03:33:34.669Z,2393.00
2024-02-27T03:34:34.686Z,2369.00
2024-02-27T03:35:34.476Z,2367.00
2024-02-27T03:36:34.494Z,2350.00
2024-02-27T03:37:34.439Z,2354.00
2024-02-27T03:38:34.511Z,2364.00
2024-02-27T03:39:34.519Z,2369.00
2024-02-27T03:40:34.470Z,2372.00
2024-02-27T03:41:34.489Z,2376.00
2024-02-27T03:42:34.562Z,2376.00
2024-02-27T03:43:34.503Z,2368.00
2024-02-27T03:44:34.517Z,2351.00
2024-02-27T03:45:34.538Z,2342.00
2024-02-27T03:46:34.475Z,2321.00
2024-02-27T03:47:34.556Z,2302.00
2024-02-27T03:48:34.630Z,2289.00
2024-02-27T03:49:34.665Z,2266.00
2024-02-27T03:50:34.480Z,2243.00
2024-02-27T03:51:34.589Z,2243.00
2024-02-27T03:52:34.526Z,2236.00
2024-02-27T03:53:34.565Z,2243.00
2024-02-27T03:54:34.628Z,2246.00
2024-02-27T03:55:34.578Z,2261.00
2024-02-27T03:56:34.596Z,2268.00
2024-02-27T03:57:34.813Z,2279.00
2024-02-27T03:58:34.651Z,2296.00
2024-02-27T03:59:34.690Z,2302.00
2024-02-27T04:00:34.813Z,2303.00
2024-02-27T04:01:34.752Z,2301.00
2024-02-27T04:02:34.779Z,2316.00
2024-02-27T04:03:34.864Z,2348.00
2024-02-27T04:04:35.093Z,2385.00
2024-02-27T04:05:34.974Z,2402.00
2024-02-27T04:06:34.962Z,2428.00
2024-02-27T04:07:35.384Z,2432.00
2024-02-27T04:08:34.891Z,2453.00
2024-02-27T04:09:34.990Z,2489.00
2024-02-27T04:10:35.051Z,2501.00
2024-02-27T04:11:35.065Z,2521.00
2024-02-27T04:12:35.179Z,2527.00
2024-02-27T04:13:36.338Z,2552.00
2024-02-27T04:14:35.199Z,2557.00
2024-02-27T04:15:35.236Z,2573.00
2024-02-27T04:16:35.288Z,2568.00
2024-02-27T04:18:35.408Z,2518.00
2024-02-27T04:19:35.524Z,2491.00
2024-02-27T04:20:35.481Z,2482.00
2024-02-27T04:21:35.425Z,2498.00
2024-02-27T04:22:35.472Z,2536.00
2024-02-27T04:23:35.474Z,2580.00
2024-02-27T04:24:35.514Z,2616.00
2024-02-27T04:25:35.486Z,2615.00
2024-02-27T04:26:35.531Z,2630.00
2024-02-27T04:27:35.661Z,2629.00
2024-02-27T04:28:35.714Z,2632.00
2024-02-27T04:29:35.597Z,2637.00
2024-02-27T04:30:35.684Z,2626.00
2024-02-27T04:31:35.655Z,2629.00
2024-02-27T04:32:35.725Z,2632.00
2024-02-27T04:33:35.823Z,2662.00
2024-02-27T04:34:35.923Z,2668.00
2024-02-27T04:35:35.778Z,2689.00
2024-02-27T04:36:35.952Z,2705.00
2024-02-27T04:37:35.896Z,2725.00
2024-02-27T04:38:35.863Z,2742.00
2024-02-27T04:39:35.918Z,2752.00
2024-02-27T04:40:35.922Z,2759.00
2024-02-27T04:41:35.974Z,2757.00
2024-02-27T04:42:36.039Z,2762.00
2024-02-27T04:43:37.845Z,2776.00
2024-02-27T04:44:36.058Z,2780.00
2024-02-27T04:45:36.141Z,2784.00
2024-02-27T04:46:36.138Z,2775.00
2024-02-27T04:47:36.208Z,2764.00
2024-02-27T04:48:36.442Z,2757.00
2024-02-27T04:49:36.411Z,2738.00
2024-02-27T04:50:36.345Z,2743.00
2024-02-27T04:51:36.400Z,2726.00
2024-02-27T04:52:37.005Z,2728.00
2024-02-27T04:53:36.477Z,2722.00
2024-02-27T04:54:36.580Z,2748.00
2024-02-27T04:55:36.558Z,2757.00
2024-02-27T04:56:36.608Z,2774.00
2024-02-27T04:57:36.698Z,2763.00
2024-02-27T04:58:36.724Z,2761.00
2024-02-27T04:59:36.762Z,2759.00
2024-02-27T05:00:36.902Z,2757.00
2024-02-27T05:01:36.878Z,2759.00
2024-02-27T05:02:36.935Z,2767.00
2024-02-27T05:03:37.439Z,2768.00
2024-02-27T05:04:37.076Z,2775.00
2024-02-27T05:05:37.106Z,2790.00
2024-02-27T05:06:37.177Z,2803.00
2024-02-27T05:07:37.178Z,2819.00
2024-02-27T05:08:37.302Z,2799.00
2024-02-27T05:09:37.343Z,2821.00
2024-02-27T05:10:37.303Z,2821.00
2024-02-27T05:11:37.316Z,2822.00
2024-02-27T05:12:37.430Z,2839.00
2024-02-27T05:13:37.426Z,2831.00
2024-02-27T05:14:37.479Z,2840.00
2024-02-27T05:15:37.810Z,2836.00
2024-02-27T05:16:37.551Z,2843.00
2024-02-27T05:17:37.645Z,2855.00
2024-02-27T05:18:37.794Z,2857.00
2024-02-27T05:19:37.763Z,2855.00
2024-02-27T05:20:37.739Z,2865.00
2024-02-27T05:21:37.771Z,2869.00
2024-02-27T05:22:37.832Z,2881.00
2024-02-27T05:23:37.931Z,2878.00
2024-02-27T05:24:38.144Z,2902.00
2024-02-27T05:25:37.970Z,2906.00
2024-02-27T05:26:37.989Z,2911.00
2024-02-27T05:27:38.204Z,2912.00
2024-02-27T05:28:38.117Z,2914.00
2024-02-27T05:29:38.164Z,2914.00
2024-02-27T05:30:38.252Z,2905.00
2024-02-27T05:31:38.243Z,2879.00
2024-02-27T05:32:38.321Z,2851.00
2024-02-27T05:33:38.548Z,2836.00
2024-02-27T05:34:38.524Z,2816.00
2024-02-27T05:35:46.079Z,600.00
2024-02-27T05:36:46.099Z,600.00
2024-02-27T05:37:46.160Z,600.00
2024-02-27T05:38:46.105Z,600.00
2024-02-27T05:39:46.171Z,600.00
2024-02-27T05:40:46.073Z,603.00
2024-02-27T05:41:46.122Z,606.00
2024-02-27T05:42:46.169Z,602.00
2024-02-27T05:43:46.098Z,602.00
2024-02-27T05:44:46.101Z,600.00
2024-02-27T05:45:46.126Z,600.00
2024-02-27T05:46:46.104Z,599.00
2024-02-27T05:47:46.142Z,601.00
2024-02-27T05:48:46.242Z,602.00
2024-02-27T05:49:46.165Z,600.00
2024-02-27T05:50:46.116Z,600.00
2024-02-27T05:51:46.184Z,602.00
2024-02-27T05:52:46.119Z,602.00
2024-02-27T05:53:46.133Z,600.00
2024-02-27T05:54:46.253Z,600.00
2024-02-27T05:55:46.199Z,600.00
2024-02-27T05:56:46.143Z,601.00
2024-02-27T05:57:46.191Z,603.00
2024-02-27T05:58:46.138Z,616.00
2024-02-27T05:59:46.147Z,628.00
2024-02-27T06:00:46.182Z,649.00
2024-02-27T06:01:46.148Z,659.00
2024-02-27T06:02:46.200Z,691.00
2024-02-27T06:04:46.176Z,735.00
2024-02-27T06:05:46.155Z,753.00
2024-02-27T06:06:46.255Z,753.00
2024-02-27T06:07:46.230Z,757.00
2024-02-27T06:08:46.140Z,759.00
2024-02-27T06:09:46.246Z,759.00
2024-02-27T06:10:46.186Z,763.00
2024-02-27T06:11:46.234Z,768.00
2024-02-27T06:12:46.197Z,784.00
2024-02-27T06:13:46.188Z,794.00
2024-02-27T06:14:46.191Z,816.00
2024-02-27T06:15:46.226Z,824.00
2024-02-27T06:16:46.199Z,832.00
2024-02-27T06:17:46.223Z,838.00
2024-02-27T06:18:46.216Z,852.00
2024-02-27T06:19:46.248Z,865.00
2024-02-27T06:20:46.191Z,864.00
2024-02-27T06:21:46.228Z,869.00
2024-02-27T06:22:46.208Z,861.00
2024-02-27T06:23:46.734Z,862.00
2024-02-27T06:24:46.320Z,874.00
2024-02-27T06:25:46.270Z,885.00
2024-02-27T06:26:46.177Z,894.00
2024-02-27T06:27:46.340Z,897.00
2024-02-27T06:28:46.209Z,907.00
2024-02-27T06:29:46.260Z,911.00
2024-02-27T06:30:46.256Z,894.00
2024-02-27T06:31:46.208Z,905.00
2024-02-27T06:32:46.237Z,905.00
2024-02-27T06:33:46.409Z,923.00
2024-02-27T06:34:46.335Z,934.00
2024-02-27T06:35:46.232Z,944.00
2024-02-27T06:36:46.240Z,952.00
2024-02-27T06:37:46.222Z,964.00
2024-02-27T06:38:46.203Z,977.00
2024-02-27T06:39:46.266Z,981.00
2024-02-27T06:40:46.258Z,972.00
2024-02-27T06:41:46.255Z,978.00
2024-02-27T06:42:46.248Z,994.00
2024-02-27T06:43:46.779Z,993.00
2024-02-27T06:44:46.255Z,1006.00
2024-02-27T06:45:46.245Z,1006.00
2024-02-27T06:46:46.222Z,1014.00
2024-02-27T06:47:46.325Z,1017.00
2024-02-27T06:48:46.324Z,1005.00
2024-02-27T06:49:46.452Z,1002.00
2024-02-27T06:50:47.067Z,1013.00
2024-02-27T06:51:46.253Z,1014.00
2024-02-27T06:52:46.243Z,1033.00
2024-02-27T06:53:46.715Z,1047.00
2024-02-27T06:54:46.272Z,1036.00
2024-02-27T06:55:46.322Z,1045.00
2024-02-27T06:56:46.283Z,1046.00
2024-02-27T06:57:46.863Z,1038.00
2024-02-27T06:58:46.693Z,1042.00
2024-02-27T06:59:46.363Z,1055.00
2024-02-27T07:00:46.494Z,1055.00
2024-02-27T07:01:46.366Z,1070.00
2024-02-27T07:02:48.416Z,1061.00
2024-02-27T07:03:46.329Z,1068.00
2024-02-27T07:04:46.333Z,1044.00
2024-02-27T07:05:53.045Z,1041.00
2024-02-27T07:06:47.457Z,1042.00
2024-02-27T07:07:46.297Z,1041.00
2024-02-27T07:08:46.294Z,1036.00
2024-02-27T07:09:46.324Z,1020.00
2024-02-27T07:10:46.304Z,1004.00
2024-02-27T07:11:46.327Z,1006.00
2024-02-27T07:12:46.290Z,997.00
2024-02-27T07:13:46.307Z,993.00
2024-02-27T07:14:46.353Z,979.00
2024-02-27T07:15:46.402Z,974.00
2024-02-27T07:16:46.300Z,973.00
2024-02-27T07:17:46.426Z,984.00
2024-02-27T07:18:46.754Z,988.00
2024-02-27T07:19:46.306Z,1014.00
2024-02-27T07:20:46.422Z,1023.00
2024-02-27T07:21:46.334Z,1030.00
2024-02-27T07:22:46.330Z,1054.00
2024-02-27T07:23:46.717Z,1086.00
2024-02-27T07:24:46.354Z,1103.00
2024-02-27T07:25:46.312Z,1104.00
2024-02-27T07:26:46.311Z,1104.00
2024-02-27T07:27:46.367Z,1100.00
2024-02-27T07:28:46.333Z,1128.00
2024-02-27T07:29:46.406Z,1129.00
2024-02-27T07:30:46.449Z,1133.00
2024-02-27T07:31:46.469Z,1136.00
2024-02-27T07:32:46.459Z,1146.00
2024-02-27T07:33:46.764Z,1155.00
2024-02-27T07:34:46.537Z,1161.00
2024-02-27T07:35:46.662Z,1177.00
2024-02-27T07:36:46.521Z,1178.00
2024-02-27T07:37:46.497Z,1187.00
2024-02-27T07:38:46.720Z,1177.00
2024-02-27T07:39:46.667Z,1183.00
2024-02-27T07:40:46.580Z,1179.00
2024-02-27T07:41:46.569Z,1180.00
2024-02-27T07:42:46.604Z,1174.00
2024-02-27T07:43:46.576Z,1175.00
2024-02-27T07:44:46.589Z,1174.00
2024-02-27T07:45:46.679Z,1181.00
2024-02-27T07:46:46.656Z,1178.00
2024-02-27T07:47:46.762Z,1177.00
2024-02-27T07:48:46.692Z,1177.00
2024-02-27T07:49:46.631Z,1176.00
2024-02-27T07:50:46.690Z,1167.00
2024-02-27T07:51:46.742Z,1151.00
2024-02-27T07:52:46.696Z,1153.00
2024-02-27T07:53:47.219Z,1136.00
2024-02-27T07:54:46.767Z,1112.00
2024-02-27T07:55:46.783Z,1092.00
2024-02-27T07:56:46.836Z,1081.00
2024-02-27T07:57:46.913Z,1080.00
2024-02-27T07:58:47.201Z,1087.00
2024-02-27T07:59:47.060Z,1093.00
2024-02-27T08:00:47.197Z,1091.00
2024-02-27T08:01:47.197Z,1099.00
2024-02-27T08:02:47.201Z,1093.00
2024-02-27T08:03:47.472Z,1100.00
2024-02-27T08:04:47.333Z,1105.00
2024-02-27T08:05:47.427Z,1121.00
2024-02-27T08:06:47.573Z,1124.00
2024-02-27T08:07:47.735Z,1108.00
2024-02-27T08:08:47.694Z,1104.00
2024-02-27T08:09:47.725Z,1109.00
2024-02-27T08:10:47.856Z,1100.00
2024-02-27T08:11:47.835Z,1090.00
2024-02-27T08:12:47.885Z,1097.00
2024-02-27T08:13:48.222Z,1106.00
2024-02-27T08:14:48.041Z,1112.00
2024-02-27T08:15:48.190Z,1111.00
2024-02-27T08:16:48.148Z,1109.00
2024-02-27T08:17:48.272Z,1113.00
2024-02-27T08:18:48.366Z,1127.00
2024-02-27T08:19:48.584Z,1124.00
2024-02-27T08:20:48.433Z,1127.00
2024-02-27T08:21:48.536Z,1125.00
2024-02-27T08:22:48.585Z,1134.00
2024-02-27T08:23:48.682Z,1132.00
2024-02-27T08:24:48.724Z,1127.00
2024-02-27T08:25:48.802Z,1124.00
2024-02-27T08:26:50.744Z,1130.00
2024-02-27T08:27:49.128Z,1133.00
2024-02-27T08:28:48.881Z,1113.00
2024-02-27T08:29:48.864Z,1106.00
2024-02-27T08:30:49.092Z,1091.00
2024-02-27T08:31:49.033Z,1083.00
2024-02-27T08:32:50.754Z,1088.00
2024-02-27T08:33:49.388Z,1056.00
2024-02-27T08:34:48.971Z,1038.00
2024-02-27T08:35:48.985Z,1021.00
2024-02-27T08:36:48.961Z,997.00
2024-02-27T08:37:48.908Z,995.00
2024-02-27T08:38:48.897Z,1013.00
2024-02-27T08:39:48.885Z,995.00
2024-02-27T08:40:48.900Z,987.00
2024-02-27T08:41:48.993Z,978.00
2024-02-27T08:42:48.979Z,964.00
2024-02-27T08:43:49.239Z,967.00
2024-02-27T08:44:49.068Z,959.00
2024-02-27T08:45:49.122Z,964.00
2024-02-27T08:46:49.121Z,968.00
2024-02-27T08:47:49.184Z,971.00
2024-02-27T08:48:49.466Z,956.00
2024-02-27T08:49:49.261Z,973.00
2024-02-27T08:50:49.187Z,960.00
2024-02-27T08:51:49.287Z,970.00
2024-02-27T08:52:49.247Z,954.00
2024-02-27T08:53:49.747Z,962.00
2024-02-27T08:54:49.292Z,956.00
2024-02-27T08:55:49.340Z,929.00
2024-02-27T08:56:49.316Z,900.00
2024-02-27T08:57:49.370Z,894.00
2024-02-27T08:58:49.410Z,884.00
2024-02-27T08:59:49.470Z,865.00
2024-02-27T09:00:49.595Z,875.00
2024-02-27T09:01:49.440Z,846.00
2024-02-27T09:02:49.483Z,855.00
2024-02-27T09:03:49.788Z,868.00
2024-02-27T09:04:49.530Z,895.00
2024-02-27T09:05:49.578Z,920.00
2024-02-27T09:06:49.759Z,933.00
2024-02-27T09:07:49.678Z,947.00
2024-02-27T09:08:49.617Z,954.00
2024-02-27T09:09:49.726Z,950.00
2024-02-27T09:10:49.627Z,957.00
2024-02-27T09:11:49.648Z,965.00
2024-02-27T09:12:49.707Z,959.00
2024-02-27T09:13:49.763Z,962.00
2024-02-27T09:14:49.677Z,963.00
2024-02-27T09:15:49.856Z,958.00
2024-02-27T09:16:49.695Z,966.00
2024-02-27T09:17:50.024Z,976.00
2024-02-27T09:18:50.413Z,947.00
2024-02-27T09:19:50.010Z,937.00
2024-02-27T09:20:50.001Z,939.00
2024-02-27T09:21:50.030Z,936.00
2024-02-27T09:22:50.062Z,951.00
2024-02-27T09:23:50.183Z,956.00
2024-02-27T09:24:50.236Z,971.00
2024-02-27T09:25:50.282Z,965.00
2024-02-27T09:26:50.488Z,951.00
2024-02-27T09:27:50.550Z,929.00
2024-02-27T09:28:50.737Z,932.00
2024-02-27T09:29:50.608Z,1156.00
2024-02-27T09:30:50.661Z,1730.00
2024-02-27T09:31:50.761Z,1665.00
2024-02-27T09:32:50.798Z,1513.00
2024-02-27T09:33:50.967Z,1380.00
2024-02-27T09:34:51.120Z,1276.00
2024-02-27T09:35:50.887Z,1755.00
2024-02-27T09:36:50.932Z,1775.00
2024-02-27T09:37:50.927Z,1695.00
2024-02-27T09:38:51.245Z,1499.00
2024-02-27T09:39:58.050Z,1371.00
2024-02-27T09:40:52.016Z,1265.00
2024-02-27T09:41:51.075Z,1161.00
2024-02-27T09:42:51.126Z,1107.00
2024-02-27T09:43:51.347Z,1068.00
2024-02-27T09:44:51.011Z,1056.00
2024-02-27T09:45:51.111Z,1018.00
2024-02-27T09:46:51.032Z,985.00
2024-02-27T09:47:51.208Z,946.00
2024-02-27T09:48:51.396Z,891.00
2024-02-27T09:49:51.081Z,868.00
2024-02-27T09:50:50.992Z,835.00
2024-02-27T09:51:51.007Z,794.00
2024-02-27T09:52:51.043Z,752.00
2024-02-27T09:53:51.230Z,733.00
2024-02-27T09:54:51.044Z,706.00
2024-02-27T09:55:51.105Z,669.00
2024-02-27T09:56:51.094Z,675.00
2024-02-27T09:57:51.505Z,663.00
2024-02-27T09:58:51.269Z,651.00
2024-02-27T09:59:51.167Z,639.00
2024-02-27T10:00:51.311Z,637.00
2024-02-27T10:01:51.429Z,631.00
2024-02-27T10:02:51.392Z,622.00
2024-02-27T10:03:51.825Z,621.00
2024-02-27T10:04:51.389Z,626.00
2024-02-27T10:05:51.474Z,623.00
2024-02-27T10:06:51.583Z,615.00
2024-02-27T10:07:51.624Z,614.00
2024-02-27T10:08:51.750Z,607.00
2024-02-27T10:09:51.564Z,604.00
2024-02-27T10:10:51.642Z,611.00
2024-02-27T10:11:51.597Z,613.00
2024-02-27T10:12:51.660Z,611.00
2024-02-27T10:13:51.758Z,624.00
2024-02-27T10:14:51.790Z,622.00
2024-02-27T10:15:51.808Z,625.00
2024-02-27T10:16:51.804Z,630.00
2024-02-27T10:17:51.944Z,634.00
2024-02-27T10:18:51.988Z,625.00
2024-02-27T10:19:51.920Z,626.00
2024-02-27T10:20:51.953Z,628.00
2024-02-27T10:21:51.936Z,616.00
2024-02-27T10:22:52.039Z,615.00
2024-02-27T10:23:52.306Z,615.00
2024-02-27T10:24:52.001Z,618.00
2024-02-27T10:25:51.956Z,623.00
2024-02-27T10:26:51.985Z,622.00
2024-02-27T10:27:51.979Z,611.00
2024-02-27T10:28:52.258Z,602.00
2024-02-27T10:29:52.039Z,600.00
2024-02-27T10:30:52.087Z,600.00
2024-02-27T10:31:52.127Z,600.00
2024-02-27T10:32:52.243Z,600.00
2024-02-27T10:33:52.339Z,602.00
2024-02-27T10:34:52.491Z,599.00
2024-02-27T10:35:52.328Z,602.00
2024-02-27T10:36:52.342Z,606.00
2024-02-27T10:37:52.363Z,608.00
2024-02-27T10:38:52.420Z,605.00
2024-02-27T10:39:52.391Z,601.00
2024-02-27T10:40:52.391Z,600.00
2024-02-27T10:41:52.429Z,602.00
2024-02-27T10:42:52.525Z,604.00
2024-02-27T10:43:55.390Z,605.00
2024-02-27T10:44:52.417Z,605.00
2024-02-27T10:45:52.490Z,604.00
2024-02-27T10:46:52.446Z,603.00
2024-02-27T10:47:52.510Z,597.00
2024-02-27T10:48:52.908Z,598.00
2024-02-27T10:49:52.472Z,831.00
2024-02-27T10:50:52.465Z,1183.00
2024-02-27T10:51:52.461Z,1025.00
2024-02-27T10:52:52.489Z,885.00
2024-02-27T10:53:52.480Z,739.00
2024-02-27T10:54:52.489Z,651.00
2024-02-27T10:55:52.469Z,622.00
2024-02-27T10:56:52.486Z,601.00
2024-02-27T10:57:52.540Z,600.00
2024-02-27T10:58:52.750Z,600.00
2024-02-27T10:59:52.510Z,599.00
2024-02-27T11:00:52.572Z,607.00
2024-02-27T11:01:52.541Z,614.00
2024-02-27T11:02:52.548Z,614.00
2024-02-27T11:03:52.526Z,612.00
2024-02-27T11:04:52.636Z,617.00
2024-02-27T11:05:52.619Z,622.00
2024-02-27T11:06:52.718Z,614.00
2024-02-27T11:07:52.613Z,612.00
2024-02-27T11:08:52.771Z,612.00
2024-02-27T11:09:52.810Z,606.00
2024-02-27T11:10:53.877Z,608.00
2024-02-27T11:11:52.887Z,615.00
2024-02-27T11:12:52.966Z,631.00
2024-02-27T11:13:53.283Z,1560.00
2024-02-27T11:14:52.956Z,2233.00
2024-02-27T11:15:53.032Z,2311.00
2024-02-27T11:16:52.958Z,2070.00
2024-02-27T11:17:53.021Z,1784.00
2024-02-27T11:18:53.443Z,1576.00
2024-02-27T11:19:53.185Z,1402.00
2024-02-27T11:20:53.030Z,1290.00
2024-02-27T11:21:53.125Z,1216.00
2024-02-27T11:22:53.099Z,1164.00
2024-02-27T11:23:53.274Z,1153.00
2024-02-27T11:24:53.214Z,1142.00
2024-02-27T11:25:53.285Z,1064.00
2024-02-27T11:26:53.228Z,999.00
2024-02-27T11:27:53.250Z,954.00
2024-02-27T11:28:53.268Z,913.00
2024-02-27T11:29:53.350Z,894.00
2024-02-27T11:30:53.402Z,839.00
2024-02-27T11:31:54.289Z,817.00
2024-02-27T11:33:54.024Z,769.00
2024-02-27T11:34:53.779Z,747.00
2024-02-27T11:35:53.654Z,738.00
2024-02-27T11:36:53.762Z,710.00
2024-02-27T11:37:53.804Z,689.00
2024-02-27T11:39:16.944Z,678.00
2024-02-27T11:39:53.942Z,680.00
2024-02-27T11:40:54.260Z,694.00
2024-02-27T11:41:53.869Z,709.00
2024-02-27T11:42:53.901Z,721.00
2024-02-27T11:43:54.295Z,721.00
2024-02-27T11:44:53.869Z,710.00
2024-02-27T11:45:53.912Z,666.00
2024-02-27T11:46:53.879Z,654.00
2024-02-27T11:47:54.209Z,645.00
2024-02-27T11:48:54.062Z,650.00
2024-02-27T11:49:54.084Z,652.00
2024-02-27T11:50:54.061Z,644.00
2024-02-27T11:51:54.045Z,640.00
2024-02-27T11:52:54.079Z,612.00
2024-02-27T11:53:54.138Z,600.00
2024-02-27T11:54:54.249Z,600.00
2024-02-27T11:55:54.201Z,608.00
2024-02-27T11:56:54.226Z,605.00
2024-02-27T11:57:54.230Z,606.00
2024-02-27T11:58:54.286Z,603.00
2024-02-27T11:59:54.229Z,604.00
2024-02-27T12:00:54.409Z,602.00
2024-02-27T12:01:55.903Z,619.00
2024-02-27T12:02:54.257Z,618.00
2024-02-27T12:03:54.340Z,620.00
2024-02-27T12:04:54.356Z,599.00
2024-02-27T12:05:54.272Z,599.00
2024-02-27T12:06:54.288Z,601.00
2024-02-27T12:07:54.267Z,600.00
2024-02-27T12:08:54.294Z,606.00
2024-02-27T12:09:54.347Z,602.00
2024-02-27T12:10:54.285Z,603.00
2024-02-27T12:11:54.276Z,603.00
2024-02-27T12:12:54.340Z,608.00
2024-02-27T12:13:54.282Z,624.00
2024-02-27T12:14:54.278Z,624.00
2024-02-27T12:15:54.351Z,636.00
2024-02-27T12:16:54.291Z,635.00